FFL9133 KFLL-MYNN
Flight info
| Callsign | FFL9133 |
|---|---|
| Flight time | N/A |
| Altitude | 21000 |
| Route | SNAPR2 RAJAY |
| Aircraft | B737/M-SDE2E3FGHIRWXY/LB1 |
Departure
| Time | N/A |
|---|---|
| Airport | Fort Lauderdale Hollywood International Airport (KFLL) |
Arrival
| Time | 2026-04-30 18:05 |
|---|---|
| Airport | Lynden Pindling International Airport (MYNN) |
| Time | Latitude | Longitude | Altitude | Speed | Heading |
|---|---|---|---|---|---|
| 2026-04-30 17:39 | 25.92232 | -79.09625 | 20998 ft | 456 kts | 113° |
| 2026-04-30 17:41 | 25.81956 | -78.83890 | 20993 ft | 456 kts | 114° |
| 2026-04-30 17:42 | 25.79393 | -78.77495 | 20998 ft | 456 kts | 114° |
| 2026-04-30 17:42 | 25.75522 | -78.67855 | 20993 ft | 456 kts | 114° |
| 2026-04-30 17:43 | 25.72936 | -78.61428 | 21000 ft | 456 kts | 114° |
| 2026-04-30 17:44 | 25.69052 | -78.51793 | 20996 ft | 456 kts | 114° |
| 2026-04-30 17:44 | 25.65176 | -78.42200 | 20997 ft | 456 kts | 114° |
| 2026-04-30 17:46 | 25.58676 | -78.26160 | 20995 ft | 456 kts | 114° |
| 2026-04-30 17:47 | 25.53468 | -78.13353 | 20997 ft | 457 kts | 114° |
| 2026-04-30 17:48 | 25.48230 | -78.00511 | 20997 ft | 457 kts | 114° |
| 2026-04-30 17:48 | 25.44293 | -77.90884 | 20997 ft | 458 kts | 114° |
| 2026-04-30 17:49 | 25.37963 | -77.79195 | 20974 ft | 410 kts | 137° |
| 2026-04-30 17:50 | 25.29812 | -77.72186 | 20430 ft | 350 kts | 143° |
| 2026-04-30 17:51 | 25.24176 | -77.67372 | 19579 ft | 332 kts | 143° |
| 2026-04-30 17:52 | 25.18823 | -77.62788 | 18752 ft | 318 kts | 142° |
| 2026-04-30 17:53 | 25.11277 | -77.54345 | 17277 ft | 302 kts | 135° |
| 2026-04-30 17:54 | 25.09537 | -77.47013 | 15861 ft | 257 kts | 35° |
| 2026-04-30 17:55 | 25.15761 | -77.48138 | 14230 ft | 241 kts | 333° |
| 2026-04-30 17:56 | 25.21051 | -77.52516 | 12088 ft | 247 kts | 311° |
| 2026-04-30 17:57 | 25.24114 | -77.57181 | 10274 ft | 261 kts | 278° |
| 2026-04-30 17:58 | 25.21526 | -77.62353 | 8483 ft | 272 kts | 227° |
| 2026-04-30 17:59 | 25.16311 | -77.68406 | 6098 ft | 270 kts | 227° |
| 2026-04-30 18:00 | 25.10260 | -77.70715 | 3903 ft | 259 kts | 137° |
| 2026-04-30 18:00 | 25.09316 | -77.65119 | 2537 ft | 251 kts | 91° |
| 2026-04-30 18:01 | 25.09369 | -77.61370 | 2032 ft | 232 kts | 90° |
| 2026-04-30 18:02 | 25.09486 | -77.56565 | 2011 ft | 186 kts | 91° |
| 2026-04-30 18:02 | 25.09206 | -77.52827 | 1375 ft | 145 kts | 104° |
| 2026-04-30 18:03 | 25.07625 | -77.50222 | 586 ft | 139 kts | 141° |
| 2026-04-30 18:04 | 25.05576 | -77.47992 | 113 ft | 138 kts | 139° |
| 2026-04-30 18:05 | 25.04098 | -77.46223 | 19 ft | 15 kts | 99° |
| 2026-04-30 18:06 | 25.04377 | -77.46417 | 16 ft | 16 kts | 315° |
| 2026-04-30 18:07 | 25.04587 | -77.46435 | 16 ft | 0 kts | 33° |